sensor_id;sensor_type;location;lat;lon;timestamp;temperature;humidity
60909;DHT22;46780;48.128;-1.704;2023-02-25T00:00:04;7.00;94.20
60909;DHT22;46780;48.128;-1.704;2023-02-25T00:02:31;7.00;94.00
60909;DHT22;46780;48.128;-1.704;2023-02-25T00:04:57;6.90;93.90
60909;DHT22;46780;48.128;-1.704;2023-02-25T00:07:23;6.90;94.20
60909;DHT22;46780;48.128;-1.704;2023-02-25T00:09:49;6.90;94.10
60909;DHT22;46780;48.128;-1.704;2023-02-25T00:12:15;6.80;94.10
60909;DHT22;46780;48.128;-1.704;2023-02-25T00:14:42;6.80;94.30
60909;DHT22;46780;48.128;-1.704;2023-02-25T00:17:09;6.70;94.50
60909;DHT22;46780;48.128;-1.704;2023-02-25T00:19:35;6.60;94.70
60909;DHT22;46780;48.128;-1.704;2023-02-25T00:22:02;6.60;94.90
60909;DHT22;46780;48.128;-1.704;2023-02-25T00:24:28;6.60;95.40
60909;DHT22;46780;48.128;-1.704;2023-02-25T00:26:54;6.50;95.40
60909;DHT22;46780;48.128;-1.704;2023-02-25T00:29:20;6.50;95.50
60909;DHT22;46780;48.128;-1.704;2023-02-25T00:31:46;6.50;95.60
60909;DHT22;46780;48.128;-1.704;2023-02-25T00:34:14;6.50;95.60
60909;DHT22;46780;48.128;-1.704;2023-02-25T00:36:40;6.50;95.80
60909;DHT22;46780;48.128;-1.704;2023-02-25T00:39:06;6.50;95.80
60909;DHT22;46780;48.128;-1.704;2023-02-25T00:41:32;6.50;95.80
60909;DHT22;46780;48.128;-1.704;2023-02-25T00:43:59;6.40;96.00
60909;DHT22;46780;48.128;-1.704;2023-02-25T00:46:26;6.40;96.10
60909;DHT22;46780;48.128;-1.704;2023-02-25T00:48:53;6.30;96.30
60909;DHT22;46780;48.128;-1.704;2023-02-25T00:51:21;6.30;96.40
60909;DHT22;46780;48.128;-1.704;2023-02-25T00:53:47;6.20;96.80
60909;DHT22;46780;48.128;-1.704;2023-02-25T00:56:14;6.20;97.10
60909;DHT22;46780;48.128;-1.704;2023-02-25T00:58:41;6.30;97.40
60909;DHT22;46780;48.128;-1.704;2023-02-25T01:01:14;6.30;97.30
60909;DHT22;46780;48.128;-1.704;2023-02-25T01:03:41;6.30;97.40
60909;DHT22;46780;48.128;-1.704;2023-02-25T01:06:07;6.30;97.70
60909;DHT22;46780;48.128;-1.704;2023-02-25T01:08:34;6.40;98.00
60909;DHT22;46780;48.128;-1.704;2023-02-25T01:11:06;6.40;98.10
60909;DHT22;46780;48.128;-1.704;2023-02-25T01:13:34;6.50;98.10
60909;DHT22;46780;48.128;-1.704;2023-02-25T01:16:00;6.50;98.30
60909;DHT22;46780;48.128;-1.704;2023-02-25T01:18:26;6.60;98.20
60909;DHT22;46780;48.128;-1.704;2023-02-25T01:20:52;6.60;98.40
60909;DHT22;46780;48.128;-1.704;2023-02-25T01:23:19;6.60;98.40
60909;DHT22;46780;48.128;-1.704;2023-02-25T01:25:46;6.60;98.50
60909;DHT22;46780;48.128;-1.704;2023-02-25T01:28:12;6.60;98.50
60909;DHT22;46780;48.128;-1.704;2023-02-25T01:30:39;6.70;98.50
60909;DHT22;46780;48.128;-1.704;2023-02-25T01:33:05;6.80;98.50
60909;DHT22;46780;48.128;-1.704;2023-02-25T01:35:31;6.80;98.40
60909;DHT22;46780;48.128;-1.704;2023-02-25T01:37:57;6.80;98.30
60909;DHT22;46780;48.128;-1.704;2023-02-25T01:40:23;6.90;98.40
60909;DHT22;46780;48.128;-1.704;2023-02-25T01:42:51;6.90;98.30
60909;DHT22;46780;48.128;-1.704;2023-02-25T01:45:24;6.90;98.30
60909;DHT22;46780;48.128;-1.704;2023-02-25T01:47:53;6.90;98.20
60909;DHT22;46780;48.128;-1.704;2023-02-25T01:50:22;6.90;98.30
60909;DHT22;46780;48.128;-1.704;2023-02-25T01:52:49;6.90;98.30
60909;DHT22;46780;48.128;-1.704;2023-02-25T01:55:15;7.00;98.40
60909;DHT22;46780;48.128;-1.704;2023-02-25T01:57:42;7.00;98.40
60909;DHT22;46780;48.128;-1.704;2023-02-25T02:00:11;7.00;98.50
60909;DHT22;46780;48.128;-1.704;2023-02-25T02:02:37;7.00;98.60
60909;DHT22;46780;48.128;-1.704;2023-02-25T02:05:04;7.00;98.80
60909;DHT22;46780;48.128;-1.704;2023-02-25T02:07:31;7.00;98.80
60909;DHT22;46780;48.128;-1.704;2023-02-25T02:09:57;7.00;98.80
60909;DHT22;46780;48.128;-1.704;2023-02-25T02:12:24;7.00;99.00
60909;DHT22;46780;48.128;-1.704;2023-02-25T02:14:50;7.10;99.10
60909;DHT22;46780;48.128;-1.704;2023-02-25T02:17:19;7.10;99.50
60909;DHT22;46780;48.128;-1.704;2023-02-25T02:19:55;7.00;99.90
60909;DHT22;46780;48.128;-1.704;2023-02-25T02:22:25;7.00;99.60
60909;DHT22;46780;48.128;-1.704;2023-02-25T02:27:45;7.00;99.90
60909;DHT22;46780;48.128;-1.704;2023-02-25T02:30:24;7.00;99.90
60909;DHT22;46780;48.128;-1.704;2023-02-25T02:32:57;7.10;99.90
60909;DHT22;46780;48.128;-1.704;2023-02-25T02:35:27;7.10;99.90
60909;DHT22;46780;48.128;-1.704;2023-02-25T02:37:57;7.10;99.90
60909;DHT22;46780;48.128;-1.704;2023-02-25T02:40:28;7.20;99.90
60909;DHT22;46780;48.128;-1.704;2023-02-25T02:43:02;7.20;99.90
60909;DHT22;46780;48.128;-1.704;2023-02-25T02:45:32;7.20;99.90
60909;DHT22;46780;48.128;-1.704;2023-02-25T02:48:03;7.20;99.90
60909;DHT22;46780;48.128;-1.704;2023-02-25T02:50:31;7.20;99.90
60909;DHT22;46780;48.128;-1.704;2023-02-25T02:52:59;7.20;99.90
60909;DHT22;46780;48.128;-1.704;2023-02-25T02:55:27;7.20;99.90
60909;DHT22;46780;48.128;-1.704;2023-02-25T02:57:57;7.10;99.90
60909;DHT22;46780;48.128;-1.704;2023-02-25T03:00:26;7.10;99.90
60909;DHT22;46780;48.128;-1.704;2023-02-25T03:02:54;7.10;99.90
60909;DHT22;46780;48.128;-1.704;2023-02-25T03:05:23;7.10;99.90
60909;DHT22;46780;48.128;-1.704;2023-02-25T03:07:54;7.10;99.90
60909;DHT22;46780;48.128;-1.704;2023-02-25T03:10:22;7.10;99.90
60909;DHT22;46780;48.128;-1.704;2023-02-25T03:12:48;7.00;99.90
60909;DHT22;46780;48.128;-1.704;2023-02-25T03:15:15;7.00;99.90
60909;DHT22;46780;48.128;-1.704;2023-02-25T03:17:41;7.00;99.90
60909;DHT22;46780;48.128;-1.704;2023-02-25T03:20:10;7.00;99.90
60909;DHT22;46780;48.128;-1.704;2023-02-25T03:22:40;7.00;99.90
60909;DHT22;46780;48.128;-1.704;2023-02-25T03:25:09;7.00;99.90
60909;DHT22;46780;48.128;-1.704;2023-02-25T03:27:36;7.00;99.90
60909;DHT22;46780;48.128;-1.704;2023-02-25T03:30:04;7.10;99.90
60909;DHT22;46780;48.128;-1.704;2023-02-25T03:32:31;7.10;99.90
60909;DHT22;46780;48.128;-1.704;2023-02-25T03:35:00;7.10;99.90
60909;DHT22;46780;48.128;-1.704;2023-02-25T03:37:28;7.20;99.90
60909;DHT22;46780;48.128;-1.704;2023-02-25T03:39:57;7.20;99.90
60909;DHT22;46780;48.128;-1.704;2023-02-25T03:42:26;7.20;99.90
60909;DHT22;46780;48.128;-1.704;2023-02-25T03:44:53;7.20;99.90
60909;DHT22;46780;48.128;-1.704;2023-02-25T03:47:20;7.30;99.90
60909;DHT22;46780;48.128;-1.704;2023-02-25T03:49:49;7.30;99.90
60909;DHT22;46780;48.128;-1.704;2023-02-25T03:52:18;7.40;99.90
60909;DHT22;46780;48.128;-1.704;2023-02-25T03:54:48;7.40;99.90
60909;DHT22;46780;48.128;-1.704;2023-02-25T03:57:16;7.40;99.90
60909;DHT22;46780;48.128;-1.704;2023-02-25T03:59:42;7.40;99.90
60909;DHT22;46780;48.128;-1.704;2023-02-25T04:02:08;7.40;99.90
60909;DHT22;46780;48.128;-1.704;2023-02-25T04:04:35;7.50;99.90
60909;DHT22;46780;48.128;-1.704;2023-02-25T04:07:01;7.40;99.90
60909;DHT22;46780;48.128;-1.704;2023-02-25T04:09:27;7.50;99.90
60909;DHT22;46780;48.128;-1.704;2023-02-25T04:11:53;7.50;99.90
60909;DHT22;46780;48.128;-1.704;2023-02-25T04:14:21;7.50;99.90
60909;DHT22;46780;48.128;-1.704;2023-02-25T04:16:47;7.50;99.90
60909;DHT22;46780;48.128;-1.704;2023-02-25T04:19:13;7.60;99.80
60909;DHT22;46780;48.128;-1.704;2023-02-25T04:21:40;7.60;99.70
60909;DHT22;46780;48.128;-1.704;2023-02-25T04:24:06;7.60;99.70
60909;DHT22;46780;48.128;-1.704;2023-02-25T04:26:32;7.60;99.60
60909;DHT22;46780;48.128;-1.704;2023-02-25T04:28:59;7.60;99.50
60909;DHT22;46780;48.128;-1.704;2023-02-25T04:31:26;7.60;99.40
60909;DHT22;46780;48.128;-1.704;2023-02-25T04:33:52;7.60;99.40
60909;DHT22;46780;48.128;-1.704;2023-02-25T04:36:22;7.60;99.40
60909;DHT22;46780;48.128;-1.704;2023-02-25T04:38:49;7.60;99.40
60909;DHT22;46780;48.128;-1.704;2023-02-25T04:41:15;7.70;99.40
60909;DHT22;46780;48.128;-1.704;2023-02-25T04:43:41;7.70;99.30
60909;DHT22;46780;48.128;-1.704;2023-02-25T04:46:07;7.70;99.20
60909;DHT22;46780;48.128;-1.704;2023-02-25T04:48:35;7.70;99.10
60909;DHT22;46780;48.128;-1.704;2023-02-25T04:51:01;7.70;99.00
60909;DHT22;46780;48.128;-1.704;2023-02-25T04:53:28;7.70;99.00
60909;DHT22;46780;48.128;-1.704;2023-02-25T04:55:54;7.70;98.90
60909;DHT22;46780;48.128;-1.704;2023-02-25T04:58:20;7.70;98.90
60909;DHT22;46780;48.128;-1.704;2023-02-25T05:00:46;7.70;98.80
60909;DHT22;46780;48.128;-1.704;2023-02-25T05:03:12;7.70;98.70
60909;DHT22;46780;48.128;-1.704;2023-02-25T05:05:40;7.60;98.70
60909;DHT22;46780;48.128;-1.704;2023-02-25T05:08:06;7.60;98.80
60909;DHT22;46780;48.128;-1.704;2023-02-25T05:10:32;7.70;98.80
60909;DHT22;46780;48.128;-1.704;2023-02-25T05:13:00;7.60;98.80
60909;DHT22;46780;48.128;-1.704;2023-02-25T05:15:26;7.60;98.80
60909;DHT22;46780;48.128;-1.704;2023-02-25T05:17:53;7.60;98.80
60909;DHT22;46780;48.128;-1.704;2023-02-25T05:20:19;7.60;98.80
60909;DHT22;46780;48.128;-1.704;2023-02-25T05:22:46;7.60;98.80
60909;DHT22;46780;48.128;-1.704;2023-02-25T05:25:13;7.60;98.80
60909;DHT22;46780;48.128;-1.704;2023-02-25T05:27:39;7.60;98.80
60909;DHT22;46780;48.128;-1.704;2023-02-25T05:30:05;7.60;98.70
60909;DHT22;46780;48.128;-1.704;2023-02-25T05:32:32;7.60;98.80
60909;DHT22;46780;48.128;-1.704;2023-02-25T05:34:58;7.50;98.80
60909;DHT22;46780;48.128;-1.704;2023-02-25T05:37:24;7.50;98.90
60909;DHT22;46780;48.128;-1.704;2023-02-25T05:39:51;7.50;98.90
60909;DHT22;46780;48.128;-1.704;2023-02-25T05:42:18;7.50;99.00
60909;DHT22;46780;48.128;-1.704;2023-02-25T05:44:44;7.40;99.10
60909;DHT22;46780;48.128;-1.704;2023-02-25T05:47:10;7.40;99.30
60909;DHT22;46780;48.128;-1.704;2023-02-25T05:49:36;7.40;99.40
60909;DHT22;46780;48.128;-1.704;2023-02-25T05:52:02;7.40;99.40
60909;DHT22;46780;48.128;-1.704;2023-02-25T05:54:29;7.30;99.40
60909;DHT22;46780;48.128;-1.704;2023-02-25T05:56:56;7.30;99.50
60909;DHT22;46780;48.128;-1.704;2023-02-25T05:59:22;7.40;99.60
60909;DHT22;46780;48.128;-1.704;2023-02-25T06:01:48;7.30;99.60
60909;DHT22;46780;48.128;-1.704;2023-02-25T06:04:15;7.30;99.60
60909;DHT22;46780;48.128;-1.704;2023-02-25T06:06:41;7.30;99.60
60909;DHT22;46780;48.128;-1.704;2023-02-25T06:09:07;7.30;99.60
60909;DHT22;46780;48.128;-1.704;2023-02-25T06:11:33;7.30;99.70
60909;DHT22;46780;48.128;-1.704;2023-02-25T06:14:01;7.30;99.70
60909;DHT22;46780;48.128;-1.704;2023-02-25T06:16:28;7.30;99.70
60909;DHT22;46780;48.128;-1.704;2023-02-25T06:18:54;7.30;99.70
60909;DHT22;46780;48.128;-1.704;2023-02-25T06:21:20;7.30;99.80
60909;DHT22;46780;48.128;-1.704;2023-02-25T06:23:46;7.20;99.80
60909;DHT22;46780;48.128;-1.704;2023-02-25T06:26:13;7.20;99.80
60909;DHT22;46780;48.128;-1.704;2023-02-25T06:28:39;7.20;99.80
60909;DHT22;46780;48.128;-1.704;2023-02-25T06:31:07;7.30;99.90
60909;DHT22;46780;48.128;-1.704;2023-02-25T06:33:34;7.20;99.90
60909;DHT22;46780;48.128;-1.704;2023-02-25T06:36:00;7.20;99.90
60909;DHT22;46780;48.128;-1.704;2023-02-25T06:38:26;7.20;99.90
60909;DHT22;46780;48.128;-1.704;2023-02-25T06:40:52;7.20;99.90
60909;DHT22;46780;48.128;-1.704;2023-02-25T06:43:19;7.20;99.90
60909;DHT22;46780;48.128;-1.704;2023-02-25T06:45:45;7.20;99.90
60909;DHT22;46780;48.128;-1.704;2023-02-25T06:48:12;7.10;99.90
60909;DHT22;46780;48.128;-1.704;2023-02-25T06:50:39;7.20;99.90
60909;DHT22;46780;48.128;-1.704;2023-02-25T06:53:05;7.20;99.90
60909;DHT22;46780;48.128;-1.704;2023-02-25T06:55:31;7.20;99.90
60909;DHT22;46780;48.128;-1.704;2023-02-25T06:57:57;7.10;99.90
60909;DHT22;46780;48.128;-1.704;2023-02-25T07:00:24;7.10;99.90
60909;DHT22;46780;48.128;-1.704;2023-02-25T07:02:50;7.10;99.90
60909;DHT22;46780;48.128;-1.704;2023-02-25T07:05:17;7.10;99.90
60909;DHT22;46780;48.128;-1.704;2023-02-25T07:07:44;7.10;99.90
60909;DHT22;46780;48.128;-1.704;2023-02-25T07:10:10;7.10;99.90
60909;DHT22;46780;48.128;-1.704;2023-02-25T07:12:36;7.10;99.90
60909;DHT22;46780;48.128;-1.704;2023-02-25T07:15:03;7.10;99.90
60909;DHT22;46780;48.128;-1.704;2023-02-25T07:17:29;7.10;99.70
60909;DHT22;46780;48.128;-1.704;2023-02-25T07:19:55;7.10;99.60
60909;DHT22;46780;48.128;-1.704;2023-02-25T07:22:23;7.10;99.40
60909;DHT22;46780;48.128;-1.704;2023-02-25T07:24:49;7.10;99.20
60909;DHT22;46780;48.128;-1.704;2023-02-25T07:27:15;7.10;99.00
60909;DHT22;46780;48.128;-1.704;2023-02-25T07:29:41;7.20;98.60
60909;DHT22;46780;48.128;-1.704;2023-02-25T07:32:08;7.20;98.30
60909;DHT22;46780;48.128;-1.704;2023-02-25T07:34:34;7.20;98.10
60909;DHT22;46780;48.128;-1.704;2023-02-25T07:37:00;7.20;97.70
60909;DHT22;46780;48.128;-1.704;2023-02-25T07:39:28;7.20;97.40
60909;DHT22;46780;48.128;-1.704;2023-02-25T07:41:54;7.20;97.50
60909;DHT22;46780;48.128;-1.704;2023-02-25T07:44:20;7.30;97.30
60909;DHT22;46780;48.128;-1.704;2023-02-25T07:46:46;7.30;97.00
60909;DHT22;46780;48.128;-1.704;2023-02-25T07:49:13;7.30;96.90
60909;DHT22;46780;48.128;-1.704;2023-02-25T07:51:39;7.30;97.00
60909;DHT22;46780;48.128;-1.704;2023-02-25T07:54:06;7.30;97.10
60909;DHT22;46780;48.128;-1.704;2023-02-25T07:56:34;7.30;97.10
60909;DHT22;46780;48.128;-1.704;2023-02-25T07:59:00;7.30;97.20
60909;DHT22;46780;48.128;-1.704;2023-02-25T08:01:27;7.30;97.30
60909;DHT22;46780;48.128;-1.704;2023-02-25T08:03:54;7.30;97.40
60909;DHT22;46780;48.128;-1.704;2023-02-25T08:06:21;7.30;97.20
60909;DHT22;46780;48.128;-1.704;2023-02-25T08:08:47;7.30;97.20
60909;DHT22;46780;48.128;-1.704;2023-02-25T08:11:13;7.30;97.10
60909;DHT22;46780;48.128;-1.704;2023-02-25T08:13:41;7.30;97.10
60909;DHT22;46780;48.128;-1.704;2023-02-25T08:16:08;7.30;97.10
60909;DHT22;46780;48.128;-1.704;2023-02-25T08:18:34;7.30;97.00
60909;DHT22;46780;48.128;-1.704;2023-02-25T08:21:00;7.30;97.00
60909;DHT22;46780;48.128;-1.704;2023-02-25T08:23:27;7.40;97.10
60909;DHT22;46780;48.128;-1.704;2023-02-25T08:25:53;7.40;97.20
60909;DHT22;46780;48.128;-1.704;2023-02-25T08:28:20;7.40;97.10
60909;DHT22;46780;48.128;-1.704;2023-02-25T08:30:47;7.40;97.10
60909;DHT22;46780;48.128;-1.704;2023-02-25T08:33:13;7.40;97.20
60909;DHT22;46780;48.128;-1.704;2023-02-25T08:35:40;7.40;97.30
60909;DHT22;46780;48.128;-1.704;2023-02-25T08:38:06;7.50;97.30
60909;DHT22;46780;48.128;-1.704;2023-02-25T08:40:32;7.60;97.80
60909;DHT22;46780;48.128;-1.704;2023-02-25T08:42:58;7.60;97.90
60909;DHT22;46780;48.128;-1.704;2023-02-25T08:45:24;7.70;97.80
60909;DHT22;46780;48.128;-1.704;2023-02-25T08:47:52;7.80;97.50
60909;DHT22;46780;48.128;-1.704;2023-02-25T08:50:18;7.80;97.40
60909;DHT22;46780;48.128;-1.704;2023-02-25T08:52:44;7.90;97.20
60909;DHT22;46780;48.128;-1.704;2023-02-25T08:55:10;8.00;96.90
60909;DHT22;46780;48.128;-1.704;2023-02-25T08:57:36;8.10;96.60
60909;DHT22;46780;48.128;-1.704;2023-02-25T09:00:03;8.10;96.10
60909;DHT22;46780;48.128;-1.704;2023-02-25T09:02:29;8.20;95.40
60909;DHT22;46780;48.128;-1.704;2023-02-25T09:04:57;8.20;95.30
60909;DHT22;46780;48.128;-1.704;2023-02-25T09:07:23;8.30;95.30
60909;DHT22;46780;48.128;-1.704;2023-02-25T09:09:49;8.30;94.90
60909;DHT22;46780;48.128;-1.704;2023-02-25T09:12:15;8.40;94.60
60909;DHT22;46780;48.128;-1.704;2023-02-25T09:14:41;8.50;93.50
60909;DHT22;46780;48.128;-1.704;2023-02-25T09:17:08;8.50;92.70
60909;DHT22;46780;48.128;-1.704;2023-02-25T09:19:34;8.60;92.80
60909;DHT22;46780;48.128;-1.704;2023-02-25T09:22:02;8.70;92.50
60909;DHT22;46780;48.128;-1.704;2023-02-25T09:24:28;8.90;92.00
60909;DHT22;46780;48.128;-1.704;2023-02-25T09:26:54;9.00;91.80
60909;DHT22;46780;48.128;-1.704;2023-02-25T09:29:20;9.30;92.00
60909;DHT22;46780;48.128;-1.704;2023-02-25T09:31:46;9.90;93.00
60909;DHT22;46780;48.128;-1.704;2023-02-25T09:34:12;10.70;92.30
60909;DHT22;46780;48.128;-1.704;2023-02-25T09:36:39;11.40;90.10
60909;DHT22;46780;48.128;-1.704;2023-02-25T09:39:06;11.90;85.60
60909;DHT22;46780;48.128;-1.704;2023-02-25T09:41:34;12.20;80.70
60909;DHT22;46780;48.128;-1.704;2023-02-25T09:44:03;12.20;76.70
60909;DHT22;46780;48.128;-1.704;2023-02-25T09:46:30;12.20;76.00
60909;DHT22;46780;48.128;-1.704;2023-02-25T09:48:58;12.40;75.20
60909;DHT22;46780;48.128;-1.704;2023-02-25T09:51:25;12.80;74.20
60909;DHT22;46780;48.128;-1.704;2023-02-25T09:53:53;13.30;71.90
60909;DHT22;46780;48.128;-1.704;2023-02-25T09:56:22;13.90;66.70
60909;DHT22;46780;48.128;-1.704;2023-02-25T09:58:51;14.30;64.80
60909;DHT22;46780;48.128;-1.704;2023-02-25T10:01:22;14.90;62.70
60909;DHT22;46780;48.128;-1.704;2023-02-25T10:03:50;15.40;57.40
60909;DHT22;46780;48.128;-1.704;2023-02-25T10:06:21;15.60;55.90
60909;DHT22;46780;48.128;-1.704;2023-02-25T10:08:50;15.90;53.20
60909;DHT22;46780;48.128;-1.704;2023-02-25T10:11:20;16.20;50.90
60909;DHT22;46780;48.128;-1.704;2023-02-25T10:13:53;16.20;49.30
60909;DHT22;46780;48.128;-1.704;2023-02-25T10:16:25;16.30;47.80
60909;DHT22;46780;48.128;-1.704;2023-02-25T10:18:58;16.40;47.40
60909;DHT22;46780;48.128;-1.704;2023-02-25T10:21:28;16.50;46.00
60909;DHT22;46780;48.128;-1.704;2023-02-25T10:24:01;16.60;45.10
60909;DHT22;46780;48.128;-1.704;2023-02-25T10:26:30;16.90;44.40
60909;DHT22;46780;48.128;-1.704;2023-02-25T10:28:59;17.10;44.10
60909;DHT22;46780;48.128;-1.704;2023-02-25T10:31:28;17.40;44.10
60909;DHT22;46780;48.128;-1.704;2023-02-25T10:33:54;17.60;42.40
60909;DHT22;46780;48.128;-1.704;2023-02-25T10:36:24;17.90;41.80
60909;DHT22;46780;48.128;-1.704;2023-02-25T10:38:51;18.20;41.00
60909;DHT22;46780;48.128;-1.704;2023-02-25T10:41:18;18.40;40.10
60909;DHT22;46780;48.128;-1.704;2023-02-25T10:43:45;18.40;39.20
60909;DHT22;46780;48.128;-1.704;2023-02-25T10:46:13;18.20;39.10
60909;DHT22;46780;48.128;-1.704;2023-02-25T10:48:41;17.70;38.60
60909;DHT22;46780;48.128;-1.704;2023-02-25T10:51:09;17.20;39.00
60909;DHT22;46780;48.128;-1.704;2023-02-25T10:53:37;16.60;39.90
60909;DHT22;46780;48.128;-1.704;2023-02-25T10:56:03;16.00;40.00
60909;DHT22;46780;48.128;-1.704;2023-02-25T10:58:31;15.30;41.10
60909;DHT22;46780;48.128;-1.704;2023-02-25T11:00:58;14.60;42.50
60909;DHT22;46780;48.128;-1.704;2023-02-25T11:03:28;14.10;43.70
60909;DHT22;46780;48.128;-1.704;2023-02-25T11:06:06;13.60;44.80
60909;DHT22;46780;48.128;-1.704;2023-02-25T11:08:32;13.10;45.60
60909;DHT22;46780;48.128;-1.704;2023-02-25T11:11:00;12.80;46.60
60909;DHT22;46780;48.128;-1.704;2023-02-25T11:13:27;12.40;47.20
60909;DHT22;46780;48.128;-1.704;2023-02-25T11:15:53;12.10;48.00
60909;DHT22;46780;48.128;-1.704;2023-02-25T11:18:20;11.90;48.80
60909;DHT22;46780;48.128;-1.704;2023-02-25T11:20:49;11.70;49.20
60909;DHT22;46780;48.128;-1.704;2023-02-25T11:23:20;11.50;49.80
60909;DHT22;46780;48.128;-1.704;2023-02-25T11:25:47;11.30;50.30
60909;DHT22;46780;48.128;-1.704;2023-02-25T11:28:16;11.10;51.20
60909;DHT22;46780;48.128;-1.704;2023-02-25T11:30:42;11.00;51.40
60909;DHT22;46780;48.128;-1.704;2023-02-25T11:33:15;10.80;51.60
60909;DHT22;46780;48.128;-1.704;2023-02-25T11:35:43;10.60;51.80
60909;DHT22;46780;48.128;-1.704;2023-02-25T11:38:18;10.50;52.50
60909;DHT22;46780;48.128;-1.704;2023-02-25T11:40:48;10.40;52.50
60909;DHT22;46780;48.128;-1.704;2023-02-25T11:43:15;10.30;52.70
60909;DHT22;46780;48.128;-1.704;2023-02-25T11:45:46;10.20;53.30
60909;DHT22;46780;48.128;-1.704;2023-02-25T11:48:15;10.20;53.50
60909;DHT22;46780;48.128;-1.704;2023-02-25T11:50:43;10.20;54.20
60909;DHT22;46780;48.128;-1.704;2023-02-25T11:53:12;10.20;54.70
60909;DHT22;46780;48.128;-1.704;2023-02-25T11:55:47;10.20;55.50
60909;DHT22;46780;48.128;-1.704;2023-02-25T11:58:16;10.40;56.00
60909;DHT22;46780;48.128;-1.704;2023-02-25T12:00:48;10.50;55.60
60909;DHT22;46780;48.128;-1.704;2023-02-25T12:03:26;10.50;55.70
60909;DHT22;46780;48.128;-1.704;2023-02-25T12:06:00;10.50;55.80
60909;DHT22;46780;48.128;-1.704;2023-02-25T12:08:34;10.40;55.90
60909;DHT22;46780;48.128;-1.704;2023-02-25T12:11:08;10.30;56.20
60909;DHT22;46780;48.128;-1.704;2023-02-25T12:16:34;10.20;57.40
60909;DHT22;46780;48.128;-1.704;2023-02-25T12:21:57;10.10;58.40
60909;DHT22;46780;48.128;-1.704;2023-02-25T12:24:35;10.10;58.90
60909;DHT22;46780;48.128;-1.704;2023-02-25T12:32:46;10.10;59.90
60909;DHT22;46780;48.128;-1.704;2023-02-25T12:40:48;10.30;58.60
60909;DHT22;46780;48.128;-1.704;2023-02-25T12:43:23;10.40;56.40
60909;DHT22;46780;48.128;-1.704;2023-02-25T12:46:07;10.40;56.10
60909;DHT22;46780;48.128;-1.704;2023-02-25T12:48:41;10.40;55.90
60909;DHT22;46780;48.128;-1.704;2023-02-25T12:51:20;10.50;56.30
60909;DHT22;46780;48.128;-1.704;2023-02-25T12:53:51;10.70;55.00
60909;DHT22;46780;48.128;-1.704;2023-02-25T12:56:25;10.90;54.70
60909;DHT22;46780;48.128;-1.704;2023-02-25T13:01:40;11.70;56.10
60909;DHT22;46780;48.128;-1.704;2023-02-25T13:04:17;12.40;52.10
60909;DHT22;46780;48.128;-1.704;2023-02-25T13:06:51;12.70;49.00
60909;DHT22;46780;48.128;-1.704;2023-02-25T13:09:23;12.60;47.00
60909;DHT22;46780;48.128;-1.704;2023-02-25T13:11:53;12.30;46.30
60909;DHT22;46780;48.128;-1.704;2023-02-25T13:17:14;11.70;46.90
60909;DHT22;46780;48.128;-1.704;2023-02-25T13:19:53;11.40;48.00
60909;DHT22;46780;48.128;-1.704;2023-02-25T13:22:29;11.20;48.90
60909;DHT22;46780;48.128;-1.704;2023-02-25T13:25:05;11.00;49.80
60909;DHT22;46780;48.128;-1.704;2023-02-25T13:30:37;10.80;51.40
60909;DHT22;46780;48.128;-1.704;2023-02-25T13:33:17;10.70;52.10
60909;DHT22;46780;48.128;-1.704;2023-02-25T13:35:50;10.70;52.60
60909;DHT22;46780;48.128;-1.704;2023-02-25T13:38:22;10.60;53.30
60909;DHT22;46780;48.128;-1.704;2023-02-25T13:40:57;10.60;53.80
60909;DHT22;46780;48.128;-1.704;2023-02-25T13:43:30;10.70;54.30
60909;DHT22;46780;48.128;-1.704;2023-02-25T13:46:03;10.80;54.20
60909;DHT22;46780;48.128;-1.704;2023-02-25T13:48:48;10.90;54.00
60909;DHT22;46780;48.128;-1.704;2023-02-25T13:54:14;10.90;54.00
60909;DHT22;46780;48.128;-1.704;2023-02-25T13:59:30;10.60;53.80
60909;DHT22;46780;48.128;-1.704;2023-02-25T14:02:02;10.40;54.00
60909;DHT22;46780;48.128;-1.704;2023-02-25T14:04:54;10.40;54.50
60909;DHT22;46780;48.128;-1.704;2023-02-25T14:07:34;10.30;55.10
60909;DHT22;46780;48.128;-1.704;2023-02-25T14:10:20;10.20;55.40
60909;DHT22;46780;48.128;-1.704;2023-02-25T14:12:53;10.10;55.60
60909;DHT22;46780;48.128;-1.704;2023-02-25T14:15:32;10.10;55.90
60909;DHT22;46780;48.128;-1.704;2023-02-25T14:18:13;10.00;56.30
60909;DHT22;46780;48.128;-1.704;2023-02-25T14:20:42;10.00;56.50
60909;DHT22;46780;48.128;-1.704;2023-02-25T14:23:11;9.90;56.90
60909;DHT22;46780;48.128;-1.704;2023-02-25T14:25:47;9.90;57.30
60909;DHT22;46780;48.128;-1.704;2023-02-25T14:28:21;10.20;58.50
60909;DHT22;46780;48.128;-1.704;2023-02-25T14:30:53;10.60;57.80
60909;DHT22;46780;48.128;-1.704;2023-02-25T14:33:25;11.00;56.00
60909;DHT22;46780;48.128;-1.704;2023-02-25T14:36:05;11.20;54.30
60909;DHT22;46780;48.128;-1.704;2023-02-25T14:38:39;11.30;54.30
60909;DHT22;46780;48.128;-1.704;2023-02-25T14:41:11;11.20;53.00
60909;DHT22;46780;48.128;-1.704;2023-02-25T14:43:42;11.20;52.90
60909;DHT22;46780;48.128;-1.704;2023-02-25T14:46:13;11.00;51.80
60909;DHT22;46780;48.128;-1.704;2023-02-25T14:48:43;10.80;51.50
60909;DHT22;46780;48.128;-1.704;2023-02-25T14:51:22;10.70;51.80
60909;DHT22;46780;48.128;-1.704;2023-02-25T14:53:56;10.60;51.90
60909;DHT22;46780;48.128;-1.704;2023-02-25T14:56:47;10.40;52.00
60909;DHT22;46780;48.128;-1.704;2023-02-25T14:59:21;10.30;52.40
60909;DHT22;46780;48.128;-1.704;2023-02-25T15:07:33;9.80;54.40
60909;DHT22;46780;48.128;-1.704;2023-02-25T15:18:47;9.50;57.20
60909;DHT22;46780;48.128;-1.704;2023-02-25T15:21:33;9.40;57.80
60909;DHT22;46780;48.128;-1.704;2023-02-25T15:24:00;9.30;58.30
60909;DHT22;46780;48.128;-1.704;2023-02-25T15:26:38;9.30;58.80
60909;DHT22;46780;48.128;-1.704;2023-02-25T15:29:04;9.30;59.20
60909;DHT22;46780;48.128;-1.704;2023-02-25T15:31:31;9.20;59.70
60909;DHT22;46780;48.128;-1.704;2023-02-25T15:36:43;9.20;61.00
60909;DHT22;46780;48.128;-1.704;2023-02-25T15:39:09;9.20;63.40
60909;DHT22;46780;48.128;-1.704;2023-02-25T15:42:00;9.10;65.50
60909;DHT22;46780;48.128;-1.704;2023-02-25T15:44:37;9.00;68.10
60909;DHT22;46780;48.128;-1.704;2023-02-25T15:49:50;8.90;70.70
60909;DHT22;46780;48.128;-1.704;2023-02-25T15:57:56;8.80;74.20
60909;DHT22;46780;48.128;-1.704;2023-02-25T16:03:23;8.80;74.70
60909;DHT22;46780;48.128;-1.704;2023-02-25T16:05:49;8.80;75.90
60909;DHT22;46780;48.128;-1.704;2023-02-25T16:08:17;8.80;75.90
60909;DHT22;46780;48.128;-1.704;2023-02-25T16:10:46;8.80;76.00
60909;DHT22;46780;48.128;-1.704;2023-02-25T16:13:16;8.80;76.10
60909;DHT22;46780;48.128;-1.704;2023-02-25T16:15:45;8.70;76.30
60909;DHT22;46780;48.128;-1.704;2023-02-25T16:18:14;8.70;76.40
60909;DHT22;46780;48.128;-1.704;2023-02-25T16:20:43;8.70;76.10
60909;DHT22;46780;48.128;-1.704;2023-02-25T16:23:10;8.70;75.80
60909;DHT22;46780;48.128;-1.704;2023-02-25T16:25:37;8.70;75.40
60909;DHT22;46780;48.128;-1.704;2023-02-25T16:28:07;8.70;75.00
60909;DHT22;46780;48.128;-1.704;2023-02-25T16:30:38;8.70;74.10
60909;DHT22;46780;48.128;-1.704;2023-02-25T16:33:07;8.70;73.70
60909;DHT22;46780;48.128;-1.704;2023-02-25T16:35:38;8.60;73.60
60909;DHT22;46780;48.128;-1.704;2023-02-25T16:38:08;8.60;73.50